Time;durP1;ratioP1;P1;durP2;ratioP2;P2;SDS_P1;SDS_P2;PMS_P1;PMS_P2;Temp;Humidity;BMP_temperature;BMP_pressure;BME280_temperature;BME280_humidity;BME280_pressure;Samples;Min_cycle;Max_cycle;Signal;HPM_P1;HPM_P2
2023/10/15 00:00:13;;;;;;;6.68;6.15;;;;;;;;;;12630598;23;20343;-67
2023/10/15 00:05:20;;;;;;;7.40;6.80;;;;;;;;;;12629387;23;20395;-69
2023/10/15 00:10:17;;;;;;;7.05;6.45;;;;;;;;;;12635753;23;20017;-68
2023/10/15 00:15:19;;;;;;;7.03;6.43;;;;;;;;;;12635083;23;20021;-67
2023/10/15 00:20:17;;;;;;;6.57;6.07;;;;;;;;;;12635344;23;20566;-67
2023/10/15 00:25:18;;;;;;;7.18;6.47;;;;;;;;;;12632469;23;20060;-67
2023/10/15 00:30:18;;;;;;;8.30;7.40;;;;;;;;;;12634623;23;20094;-66
2023/10/15 00:35:21;;;;;;;7.60;6.90;;;;;;;;;;12633493;23;20090;-66
2023/10/15 00:40:19;;;;;;;7.57;6.88;;;;;;;;;;12634698;23;20027;-66
2023/10/15 00:45:17;;;;;;;9.93;7.45;;;;;;;;;;12634392;23;20024;-66
2023/10/15 00:50:14;;;;;;;7.28;6.70;;;;;;;;;;12635186;23;20025;-69
2023/10/15 00:55:16;;;;;;;8.10;7.40;;;;;;;;;;12633504;23;20505;-69
2023/10/15 01:00:39;;;;;;;;;;;;;;;;;;12635051;23;20016;-68
2023/10/15 01:05:33;;;;;;;8.15;7.35;;;;;;;;;;12623949;23;19927;-69
2023/10/15 01:10:40;;;;;;;7.93;7.32;;;;;;;;;;12633221;23;20017;-68
2023/10/15 01:15:41;;;;;;;9.98;7.28;;;;;;;;;;12633826;23;20067;-69
2023/10/15 01:20:44;;;;;;;8.38;7.55;;;;;;;;;;12632707;23;20031;-67
2023/10/15 01:25:48;;;;;;;8.52;6.82;;;;;;;;;;12630793;23;20102;-69
2023/10/15 01:30:50;;;;;;;6.07;5.38;;;;;;;;;;12633545;23;20359;-69
2023/10/15 01:35:46;;;;;;;6.43;5.82;;;;;;;;;;12632350;23;20367;-67
2023/10/15 01:40:44;;;;;;;6.45;5.85;;;;;;;;;;12633450;23;20025;-68
2023/10/15 01:45:47;;;;;;;6.55;5.95;;;;;;;;;;12631742;23;20044;-68
2023/10/15 01:50:49;;;;;;;6.65;5.78;;;;;;;;;;12634666;23;20020;-67
2023/10/15 01:55:55;;;;;;;6.70;6.03;;;;;;;;;;12633335;23;20088;-68
2023/10/15 02:00:52;;;;;;;8.73;5.93;;;;;;;;;;12633863;23;20024;-68
2023/10/15 02:05:54;;;;;;;8.63;6.47;;;;;;;;;;12632968;23;20017;-68
2023/10/15 02:10:51;;;;;;;8.10;5.97;;;;;;;;;;12623361;23;20083;-68
2023/10/15 02:15:51;;;;;;;9.40;5.82;;;;;;;;;;12633060;23;20021;-68
2023/10/15 02:25:52;;;;;;;9.10;5.85;;;;;;;;;;12632955;23;20017;-66
2023/10/15 02:30:58;;;;;;;6.13;5.63;;;;;;;;;;12633448;23;20032;-67
2023/10/15 02:35:58;;;;;;;6.60;6.00;;;;;;;;;;12633702;23;20028;-68
2023/10/15 02:46:00;;;;;;;6.78;6.00;;;;;;;;;;12630855;23;20480;-67
2023/10/15 02:51:07;;;;;;;6.73;5.60;;;;;;;;;;12633173;23;20025;-67
2023/10/15 02:56:10;;;;;;;8.88;6.10;;;;;;;;;;12637105;23;20083;-67
2023/10/15 03:01:17;;;;;;;10.52;6.97;;;;;;;;;;12635624;23;20063;-67
2023/10/15 03:06:18;;;;;;;7.03;6.40;;;;;;;;;;12636614;23;20340;-67
2023/10/15 03:11:18;;;;;;;7.15;6.22;;;;;;;;;;12637165;23;20032;-66
2023/10/15 03:16:14;;;;;;;7.13;6.50;;;;;;;;;;12625190;23;20024;-67
2023/10/15 03:21:18;;;;;;;7.15;6.28;;;;;;;;;;12636486;23;20027;-67
2023/10/15 03:26:17;;;;;;;6.75;6.03;;;;;;;;;;12636211;23;20024;-68
2023/10/15 03:31:14;;;;;;;9.90;6.00;;;;;;;;;;12636643;23;20036;-69
2023/10/15 03:36:12;;;;;;;6.60;6.00;;;;;;;;;;12636205;23;20031;-65
2023/10/15 03:41:21;;;;;;;6.47;5.93;;;;;;;;;;12635876;23;20039;-67
2023/10/15 03:46:19;;;;;;;7.22;6.47;;;;;;;;;;12635868;23;20035;-66
2023/10/15 03:51:20;;;;;;;8.07;6.63;;;;;;;;;;12636482;23;20032;-68
2023/10/15 03:56:19;;;;;;;9.10;6.90;;;;;;;;;;12636530;23;20112;-67
2023/10/15 04:06:13;;;;;;;7.32;6.60;;;;;;;;;;12635740;23;20036;-66
2023/10/15 04:11:11;;;;;;;7.03;6.38;;;;;;;;;;12635961;23;20025;-67
2023/10/15 04:16:07;;;;;;;10.50;7.18;;;;;;;;;;12635943;23;20024;-67
2023/10/15 04:21:05;;;;;;;7.40;6.85;;;;;;;;;;12629801;23;20028;-66
2023/10/15 04:26:12;;;;;;;6.55;5.95;;;;;;;;;;12635797;23;20403;-66
2023/10/15 04:31:11;;;;;;;7.45;6.68;;;;;;;;;;12629910;23;20078;-65
2023/10/15 04:36:09;;;;;;;7.43;6.82;;;;;;;;;;12635514;23;20024;-66
2023/10/15 04:41:06;;;;;;;8.88;7.38;;;;;;;;;;12635784;23;20067;-66
2023/10/15 04:46:02;;;;;;;7.25;6.55;;;;;;;;;;12635874;23;20024;-66
2023/10/15 04:51:05;;;;;;;7.63;7.03;;;;;;;;;;12634916;23;20025;-67
2023/10/15 04:56:04;;;;;;;;;;;;;;;;;;12635188;23;20029;-68
2023/10/15 05:01:00;;;;;;;7.38;6.63;;;;;;;;;;12633943;23;20342;-68
2023/10/15 05:06:01;;;;;;;6.82;6.28;;;;;;;;;;12634518;23;20026;-68
2023/10/15 05:10:57;;;;;;;7.38;6.78;;;;;;;;;;12634466;23;20028;-67
2023/10/15 05:15:56;;;;;;;8.15;7.38;;;;;;;;;;12633856;23;20067;-67
2023/10/15 05:20:52;;;;;;;7.55;7.00;;;;;;;;;;12627671;23;20017;-68
2023/10/15 05:25:53;;;;;;;13.68;7.30;;;;;;;;;;12634397;23;20399;-68
2023/10/15 05:30:49;;;;;;;7.50;6.90;;;;;;;;;;12634086;23;20534;-67
2023/10/15 05:35:49;;;;;;;10.48;7.15;;;;;;;;;;12633363;23;20075;-66
2023/10/15 05:40:45;;;;;;;7.53;7.03;;;;;;;;;;12634573;23;20027;-66
2023/10/15 05:45:46;;;;;;;7.75;7.03;;;;;;;;;;12628065;23;20020;-66
2023/10/15 05:50:42;;;;;;;8.10;7.45;;;;;;;;;;12634530;23;20021;-68
2023/10/15 05:55:38;;;;;;;7.68;6.90;;;;;;;;;;12631745;23;20024;-70
2023/10/15 06:00:41;;;;;;;7.97;6.75;;;;;;;;;;12633865;23;20473;-66
2023/10/15 06:05:37;;;;;;;7.70;7.00;;;;;;;;;;12629447;23;20052;-67
2023/10/15 06:10:34;;;;;;;7.32;6.57;;;;;;;;;;12629350;23;20096;-67
2023/10/15 06:15:30;;;;;;;7.55;6.85;;;;;;;;;;12628680;23;20033;-68
2023/10/15 06:20:26;;;;;;;8.13;7.43;;;;;;;;;;12632408;23;20029;-67
2023/10/15 06:25:24;;;;;;;9.40;7.28;;;;;;;;;;12634725;23;20024;-70
2023/10/15 06:30:20;;;;;;;8.35;7.05;;;;;;;;;;12636765;23;20020;-67
2023/10/15 06:35:21;;;;;;;11.15;6.90;;;;;;;;;;12636515;23;20051;-67
2023/10/15 06:40:17;;;;;;;7.15;6.55;;;;;;;;;;12628989;23;20021;-68
2023/10/15 06:45:19;;;;;;;7.50;6.90;;;;;;;;;;12636900;23;20079;-66
2023/10/15 06:50:19;;;;;;;7.40;6.80;;;;;;;;;;12637565;23;20340;-66
2023/10/15 06:55:22;;;;;;;9.63;6.95;;;;;;;;;;12635541;23;20406;-67
2023/10/15 07:00:21;;;;;;;6.82;6.32;;;;;;;;;;12630848;23;20359;-67
2023/10/15 07:05:20;;;;;;;7.38;6.60;;;;;;;;;;12637189;23;20021;-69
2023/10/15 07:10:17;;;;;;;6.55;6.05;;;;;;;;;;12637262;23;20028;-71
2023/10/15 07:15:14;;;;;;;6.60;6.10;;;;;;;;;;12636646;23;20029;-70
2023/10/15 07:20:14;;;;;;;6.38;5.88;;;;;;;;;;12637072;23;20021;-69
2023/10/15 07:25:11;;;;;;;7.40;6.80;;;;;;;;;;12636486;23;20501;-70
2023/10/15 07:30:15;;;;;;;7.93;7.18;;;;;;;;;;12637158;23;20028;-70
2023/10/15 07:35:13;;;;;;;6.95;6.40;;;;;;;;;;12636566;23;20031;-71
2023/10/15 07:40:17;;;;;;;7.70;7.10;;;;;;;;;;12637043;23;20024;-69
2023/10/15 07:45:14;;;;;;;7.35;6.25;;;;;;;;;;12636276;23;20108;-69
2023/10/15 07:50:17;;;;;;;7.25;6.50;;;;;;;;;;12637241;23;20044;-69
2023/10/15 07:55:14;;;;;;;7.35;6.55;;;;;;;;;;12631133;23;20021;-68
2023/10/15 08:00:15;;;;;;;7.55;7.05;;;;;;;;;;12629643;23;20020;-68
2023/10/15 08:05:12;;;;;;;7.25;6.30;;;;;;;;;;12633189;23;20693;-69
2023/10/15 08:10:09;;;;;;;6.78;5.97;;;;;;;;;;12632071;23;20021;-69
2023/10/15 08:15:06;;;;;;;6.50;5.90;;;;;;;;;;12630817;23;20075;-70
2023/10/15 08:20:04;;;;;;;6.80;6.28;;;;;;;;;;12636345;23;20417;-71
2023/10/15 08:25:00;;;;;;;7.55;6.90;;;;;;;;;;12636553;23;20026;-70
2023/10/15 08:29:57;;;;;;;7.13;6.43;;;;;;;;;;12636102;23;20032;-70
2023/10/15 08:34:53;;;;;;;6.45;5.95;;;;;;;;;;12634911;23;20024;-71
2023/10/15 08:39:49;;;;;;;9.73;5.55;;;;;;;;;;12635437;23;20023;-71
2023/10/15 08:44:47;;;;;;;6.10;5.60;;;;;;;;;;12635045;23;20466;-71
2023/10/15 08:49:46;;;;;;;6.00;5.50;;;;;;;;;;12632238;23;20024;-71
2023/10/15 08:54:43;;;;;;;6.03;5.50;;;;;;;;;;12623906;23;20028;-72
2023/10/15 08:59:40;;;;;;;6.10;5.60;;;;;;;;;;12627497;23;20024;-69
2023/10/15 09:04:36;;;;;;;7.10;6.50;;;;;;;;;;12624700;23;20031;-69
2023/10/15 09:09:33;;;;;;;7.07;6.47;;;;;;;;;;12627032;23;20482;-68
2023/10/15 09:14:38;;;;;;;6.78;6.30;;;;;;;;;;12631627;23;20016;-68
2023/10/15 09:19:35;;;;;;;6.72;6.20;;;;;;;;;;12633156;23;20017;-68
2023/10/15 09:24:31;;;;;;;6.65;5.95;;;;;;;;;;12631410;23;20666;-68
2023/10/15 09:29:30;;;;;;;6.97;6.40;;;;;;;;;;12632048;23;20040;-68
2023/10/15 09:34:26;;;;;;;6.75;6.25;;;;;;;;;;12630957;23;20043;-68
2023/10/15 09:39:26;;;;;;;6.13;5.63;;;;;;;;;;12629989;23;20017;-69
2023/10/15 09:44:23;;;;;;;6.47;6.07;;;;;;;;;;12630865;23;20024;-68
2023/10/15 09:49:20;;;;;;;8.85;6.32;;;;;;;;;;12633374;23;20028;-72
2023/10/15 09:54:19;;;;;;;6.90;6.30;;;;;;;;;;12616948;23;20032;-74
2023/10/15 09:59:17;;;;;;;6.63;6.13;;;;;;;;;;12627103;23;20035;-73
2023/10/15 10:04:40;;;;;;;7.70;7.00;;;;;;;;;;12628541;23;20024;-72
2023/10/15 10:09:56;;;;;;;8.00;6.97;;;;;;;;;;12623257;23;20032;-74
2023/10/15 10:14:55;;;;;;;7.43;6.93;;;;;;;;;;12627753;23;20467;-74
2023/10/15 10:19:52;;;;;;;7.63;6.85;;;;;;;;;;12630609;23;20027;-72
2023/10/15 10:24:50;;;;;;;7.22;6.68;;;;;;;;;;12617017;23;20028;-74
2023/10/15 10:29:51;;;;;;;7.07;6.20;;;;;;;;;;12628605;23;20025;-74
2023/10/15 10:35:23;;;;;;;7.13;6.53;;;;;;;;;;12629148;23;20028;-73
2023/10/15 10:40:39;;;;;;;7.47;6.67;;;;;;;;;;12495036;23;20025;-73
2023/10/15 10:45:51;;;;;;;7.45;6.50;;;;;;;;;;12629712;23;20099;-74
2023/10/15 10:51:08;;;;;;;6.97;6.38;;;;;;;;;;12630212;23;20024;-73
2023/10/15 10:56:06;;;;;;;7.43;6.75;;;;;;;;;;12630683;23;20017;-74
2023/10/15 11:01:06;;;;;;;8.80;5.80;;;;;;;;;;12632251;23;20027;-73
2023/10/15 11:06:07;;;;;;;5.75;5.22;;;;;;;;;;12629162;23;20043;-73
2023/10/15 11:11:03;;;;;;;5.72;5.13;;;;;;;;;;12622572;23;20115;-72
2023/10/15 11:16:00;;;;;;;5.95;5.35;;;;;;;;;;12630338;23;20113;-74
2023/10/15 11:20:56;;;;;;;6.90;5.60;;;;;;;;;;12632319;23;20451;-75
2023/10/15 11:25:54;;;;;;;8.23;5.20;;;;;;;;;;12629963;23;20098;-74
2023/10/15 11:30:52;;;;;;;5.93;5.40;;;;;;;;;;12635335;23;20481;-73
2023/10/15 11:35:51;;;;;;;6.38;5.55;;;;;;;;;;12628432;23;20035;-74
2023/10/15 11:40:47;;;;;;;6.10;5.70;;;;;;;;;;12634422;23;20024;-73
2023/10/15 11:45:45;;;;;;;6.20;4.72;;;;;;;;;;12634322;23;20438;-73
2023/10/15 11:50:41;;;;;;;9.05;4.80;;;;;;;;;;12634531;23;20020;-72
2023/10/15 11:55:41;;;;;;;6.10;5.38;;;;;;;;;;12634642;23;20096;-73
2023/10/15 12:00:39;;;;;;;7.80;4.95;;;;;;;;;;12635465;23;20367;-74
2023/10/15 12:05:37;;;;;;;5.97;5.38;;;;;;;;;;12634138;23;20017;-71
2023/10/15 12:10:33;;;;;;;7.60;4.95;;;;;;;;;;12633786;23;20024;-74
2023/10/15 12:15:30;;;;;;;7.72;4.88;;;;;;;;;;12632357;23;20679;-72
2023/10/15 12:20:28;;;;;;;5.03;4.63;;;;;;;;;;12635106;23;20099;-73
2023/10/15 12:25:25;;;;;;;6.85;4.60;;;;;;;;;;12625493;23;20048;-76
2023/10/15 12:30:24;;;;;;;9.20;4.80;;;;;;;;;;12633032;23;20052;-75
2023/10/15 12:35:21;;;;;;;8.88;4.30;;;;;;;;;;12634932;23;20028;-73
2023/10/15 12:40:29;;;;;;;5.35;3.75;;;;;;;;;;12630328;23;20028;-76
2023/10/15 12:45:25;;;;;;;4.97;3.35;;;;;;;;;;12634612;23;20067;-74
2023/10/15 12:50:23;;;;;;;6.35;3.75;;;;;;;;;;12635228;23;20025;-74
2023/10/15 12:55:19;;;;;;;7.90;3.60;;;;;;;;;;12634884;23;20021;-74
2023/10/15 13:00:22;;;;;;;13.05;3.60;;;;;;;;;;12635997;23;20455;-74
2023/10/15 13:05:19;;;;;;;3.30;2.70;;;;;;;;;;12634135;23;20028;-72
2023/10/15 13:10:17;;;;;;;4.75;3.10;;;;;;;;;;12634707;23;20419;-71
2023/10/15 13:15:16;;;;;;;8.07;3.40;;;;;;;;;;12635353;23;20683;-71
2023/10/15 13:20:13;;;;;;;7.22;3.47;;;;;;;;;;12633991;23;20024;-72
2023/10/15 13:25:11;;;;;;;3.78;2.80;;;;;;;;;;12632708;23;20336;-71
2023/10/15 13:30:12;;;;;;;7.95;3.60;;;;;;;;;;12625897;23;20533;-72
2023/10/15 13:35:11;;;;;;;6.43;3.50;;;;;;;;;;12632654;23;20020;-71
2023/10/15 13:40:10;;;;;;;6.50;4.72;;;;;;;;;;12634727;23;20394;-71
2023/10/15 13:45:07;;;;;;;10.77;4.97;;;;;;;;;;12629050;23;20031;-71
2023/10/15 13:50:06;;;;;;;9.10;4.93;;;;;;;;;;12634082;23;20039;-73
2023/10/15 13:55:04;;;;;;;5.30;4.78;;;;;;;;;;12634269;23;20027;-71
2023/10/15 14:00:00;;;;;;;6.68;4.55;;;;;;;;;;12634218;23;20028;-73
2023/10/15 14:04:58;;;;;;;7.90;4.40;;;;;;;;;;12629768;23;20020;-72
2023/10/15 14:09:54;;;;;;;6.50;4.50;;;;;;;;;;12632872;23;20027;-72
2023/10/15 14:14:51;;;;;;;5.28;3.85;;;;;;;;;;12634138;23;20020;-72
2023/10/15 14:19:50;;;;;;;10.55;4.25;;;;;;;;;;12633546;23;20511;-73
2023/10/15 14:24:47;;;;;;;8.55;3.65;;;;;;;;;;12634016;23;20025;-72
2023/10/15 14:29:45;;;;;;;5.95;4.40;;;;;;;;;;12634681;23;20020;-72
2023/10/15 14:34:42;;;;;;;10.20;5.10;;;;;;;;;;12625229;23;20067;-72
2023/10/15 14:39:38;;;;;;;6.20;4.63;;;;;;;;;;12633460;23;20032;-72
2023/10/15 14:44:34;;;;;;;9.30;5.00;;;;;;;;;;12633061;23;20028;-74
2023/10/15 14:49:31;;;;;;;13.65;7.22;;;;;;;;;;12631653;23;20024;-72
2023/10/15 14:54:27;;;;;;;9.75;6.05;;;;;;;;;;12633250;23;20020;-71
2023/10/15 14:59:23;;;;;;;11.88;6.40;;;;;;;;;;12633171;23;20028;-74
2023/10/15 15:04:27;;;;;;;9.43;7.28;;;;;;;;;;12634653;23;20534;-72
2023/10/15 15:09:24;;;;;;;7.40;6.43;;;;;;;;;;12634307;23;20032;-72
2023/10/15 15:14:21;;;;;;;15.07;7.68;;;;;;;;;;12628491;23;20021;-72
2023/10/15 15:19:17;;;;;;;8.15;7.10;;;;;;;;;;12635125;23;20028;-71
2023/10/15 15:24:15;;;;;;;9.35;8.00;;;;;;;;;;12635469;23;20028;-71
2023/10/15 15:29:13;;;;;;;8.63;7.78;;;;;;;;;;12637024;23;20052;-72
2023/10/15 15:34:12;;;;;;;8.73;7.18;;;;;;;;;;12636398;23;20102;-74
2023/10/15 15:39:09;;;;;;;10.98;8.15;;;;;;;;;;12635295;23;20039;-72
2023/10/15 15:44:06;;;;;;;14.77;8.68;;;;;;;;;;12622920;23;20032;-71
2023/10/15 15:49:04;;;;;;;8.88;7.97;;;;;;;;;;12636108;23;20029;-72
2023/10/15 15:54:00;;;;;;;9.45;7.85;;;;;;;;;;12636068;23;20027;-71
2023/10/15 15:58:57;;;;;;;11.50;9.23;;;;;;;;;;12635595;23;20027;-72
2023/10/15 16:03:56;;;;;;;9.77;7.65;;;;;;;;;;12630503;23;20028;-72
2023/10/15 16:08:54;;;;;;;10.48;8.20;;;;;;;;;;12630366;23;20091;-74
2023/10/15 16:13:52;;;;;;;10.15;7.88;;;;;;;;;;12628090;23;20363;-72
2023/10/15 16:18:48;;;;;;;12.18;7.70;;;;;;;;;;12626217;23;20032;-74
2023/10/15 16:23:45;;;;;;;16.88;8.20;;;;;;;;;;12632567;23;20031;-73
2023/10/15 16:28:41;;;;;;;12.10;8.43;;;;;;;;;;12630664;23;20517;-73
2023/10/15 16:33:39;;;;;;;14.27;9.48;;;;;;;;;;12633484;23;20035;-73
2023/10/15 16:38:36;;;;;;;15.27;10.38;;;;;;;;;;12629515;23;20052;-74
2023/10/15 16:43:32;;;;;;;15.77;9.80;;;;;;;;;;12623671;23;20032;-71
2023/10/15 16:48:29;;;;;;;10.98;9.25;;;;;;;;;;12631792;23;20466;-73
2023/10/15 16:53:25;;;;;;;12.23;11.02;;;;;;;;;;12632466;23;20051;-73
2023/10/15 16:58:22;;;;;;;15.50;9.90;;;;;;;;;;12629502;23;20024;-73
2023/10/15 17:03:19;;;;;;;11.13;9.35;;;;;;;;;;12631422;23;20021;-72
2023/10/15 17:08:16;;;;;;;12.35;8.48;;;;;;;;;;12621156;23;20713;-71
2023/10/15 17:13:14;;;;;;;12.68;8.02;;;;;;;;;;12621400;23;20033;-72
2023/10/15 17:18:10;;;;;;;11.13;7.93;;;;;;;;;;12623064;23;20032;-72
2023/10/15 17:23:07;;;;;;;11.45;8.60;;;;;;;;;;12621921;23;20599;-73
2023/10/15 17:28:04;;;;;;;10.20;8.65;;;;;;;;;;12623987;23;20028;-74
2023/10/15 17:33:02;;;;;;;11.57;9.13;;;;;;;;;;12620558;23;20032;-73
2023/10/15 17:37:59;;;;;;;10.30;9.27;;;;;;;;;;12628561;23;20048;-73
2023/10/15 17:42:55;;;;;;;12.88;8.90;;;;;;;;;;12629166;23;20056;-72
2023/10/15 17:47:53;;;;;;;9.23;8.43;;;;;;;;;;12624213;23;20071;-72
2023/10/15 17:52:49;;;;;;;12.52;8.45;;;;;;;;;;12613549;23;20032;-73
2023/10/15 17:57:45;;;;;;;10.23;8.20;;;;;;;;;;12623315;23;20543;-74
2023/10/15 18:02:42;;;;;;;10.18;9.10;;;;;;;;;;12623397;23;20056;-72
2023/10/15 18:07:39;;;;;;;13.80;8.45;;;;;;;;;;12625894;23;20032;-72
2023/10/15 18:12:35;;;;;;;12.55;8.48;;;;;;;;;;12626734;23;20439;-73
2023/10/15 18:17:33;;;;;;;10.90;8.45;;;;;;;;;;12624611;23;20028;-73
2023/10/15 18:22:29;;;;;;;12.95;9.52;;;;;;;;;;12626451;23;20025;-74
2023/10/15 18:27:27;;;;;;;14.15;10.18;;;;;;;;;;12633103;23;20107;-73
2023/10/15 18:32:24;;;;;;;10.25;9.13;;;;;;;;;;12632840;23;20024;-73
2023/10/15 18:37:21;;;;;;;12.98;9.43;;;;;;;;;;12635084;23;20413;-73
2023/10/15 18:42:17;;;;;;;10.63;9.52;;;;;;;;;;12633587;23;20088;-73
2023/10/15 18:47:13;;;;;;;11.77;9.48;;;;;;;;;;12629871;23;20028;-72
2023/10/15 18:52:10;;;;;;;15.38;10.13;;;;;;;;;;12632735;23;20075;-72
2023/10/15 18:57:07;;;;;;;12.48;9.32;;;;;;;;;;12623886;23;20033;-73
2023/10/15 19:02:05;;;;;;;15.35;9.30;;;;;;;;;;12633304;23;20025;-71
2023/10/15 19:07:01;;;;;;;13.23;9.73;;;;;;;;;;12633042;23;20024;-71
2023/10/15 19:11:58;;;;;;;14.15;9.90;;;;;;;;;;12634564;23;20032;-73
2023/10/15 19:16:54;;;;;;;13.40;9.43;;;;;;;;;;12630948;23;20795;-73
2023/10/15 19:21:51;;;;;;;11.90;10.30;;;;;;;;;;12630621;23;20378;-72
2023/10/15 19:26:48;;;;;;;10.48;9.55;;;;;;;;;;12629583;23;20028;-71
2023/10/15 19:31:44;;;;;;;10.70;9.65;;;;;;;;;;12633261;23;20024;-72
2023/10/15 19:36:40;;;;;;;12.45;10.00;;;;;;;;;;12632609;23;20052;-72
2023/10/15 19:41:37;;;;;;;11.05;9.95;;;;;;;;;;12634755;23;20362;-73
2023/10/15 19:46:34;;;;;;;11.10;10.00;;;;;;;;;;12631898;23;20347;-74
2023/10/15 19:51:31;;;;;;;10.65;9.60;;;;;;;;;;12633674;23;20131;-72
2023/10/15 19:56:27;;;;;;;10.73;9.70;;;;;;;;;;12631418;23;20051;-73
2023/10/15 20:01:24;;;;;;;14.23;9.80;;;;;;;;;;12623655;23;20029;-72
2023/10/15 20:06:22;;;;;;;11.55;9.60;;;;;;;;;;12628638;23;20669;-70
2023/10/15 20:11:18;;;;;;;10.85;9.48;;;;;;;;;;12629862;23;20108;-70
2023/10/15 20:16:15;;;;;;;11.07;9.20;;;;;;;;;;12620520;23;20020;-67
2023/10/15 20:21:11;;;;;;;11.38;9.88;;;;;;;;;;12631972;23;20027;-67
2023/10/15 20:26:08;;;;;;;16.85;10.20;;;;;;;;;;12631806;23;20455;-68
2023/10/15 20:31:06;;;;;;;14.40;10.40;;;;;;;;;;12631678;23;20055;-69
2023/10/15 20:36:04;;;;;;;12.23;9.80;;;;;;;;;;12631606;23;20088;-69
2023/10/15 20:41:01;;;;;;;13.07;10.15;;;;;;;;;;12633196;23;20071;-70
2023/10/15 20:45:57;;;;;;;11.60;10.15;;;;;;;;;;12631385;23;20467;-69
2023/10/15 20:50:54;;;;;;;14.65;9.45;;;;;;;;;;12632003;23;20104;-69
2023/10/15 20:55:54;;;;;;;15.13;9.82;;;;;;;;;;12631931;23;20458;-69
2023/10/15 21:00:50;;;;;;;14.45;9.63;;;;;;;;;;12632513;23;20017;-69
2023/10/15 21:05:47;;;;;;;9.35;8.32;;;;;;;;;;12631706;23;20020;-69
2023/10/15 21:10:44;;;;;;;12.35;8.63;;;;;;;;;;12632173;23;20354;-68
2023/10/15 21:15:42;;;;;;;9.93;7.82;;;;;;;;;;12631867;23;20024;-68
2023/10/15 21:20:39;;;;;;;10.85;8.27;;;;;;;;;;12625696;23;20027;-69
2023/10/15 21:25:35;;;;;;;12.18;8.10;;;;;;;;;;12631659;23;20016;-68
2023/10/15 21:30:33;;;;;;;9.23;8.30;;;;;;;;;;12633552;23;20901;-68
2023/10/15 21:35:30;;;;;;;11.43;9.20;;;;;;;;;;12630190;23;20090;-68
2023/10/15 21:40:26;;;;;;;14.63;8.75;;;;;;;;;;12631187;23;20021;-69
2023/10/15 21:45:22;;;;;;;10.00;8.48;;;;;;;;;;12629317;23;20035;-68
2023/10/15 21:50:19;;;;;;;13.63;8.48;;;;;;;;;;12632123;23;20024;-68
2023/10/15 21:55:15;;;;;;;13.48;8.25;;;;;;;;;;12631136;23;20478;-68
2023/10/15 22:00:27;;;;;;;10.82;8.10;;;;;;;;;;12631152;23;20056;-68
2023/10/15 22:05:24;;;;;;;9.13;7.60;;;;;;;;;;12630181;23;20021;-68
2023/10/15 22:10:21;;;;;;;13.13;9.30;;;;;;;;;;12632394;23;20025;-68
2023/10/15 22:15:17;;;;;;;10.85;8.65;;;;;;;;;;12630034;23;20029;-69
2023/10/15 22:20:19;;;;;;;9.27;8.27;;;;;;;;;;12632268;23;20790;-69
2023/10/15 22:25:16;;;;;;;11.55;8.50;;;;;;;;;;12630290;23;20021;-68
2023/10/15 22:30:18;;;;;;;9.25;8.35;;;;;;;;;;12631195;23;20035;-67
2023/10/15 22:35:15;;;;;;;9.55;7.32;;;;;;;;;;12631359;23;20103;-69
2023/10/15 22:40:12;;;;;;;7.97;7.20;;;;;;;;;;12631092;23;20459;-68
2023/10/15 22:45:08;;;;;;;9.60;8.13;;;;;;;;;;12630049;23;20028;-68
2023/10/15 22:50:08;;;;;;;8.77;7.43;;;;;;;;;;12631001;23;20025;-67
2023/10/15 22:55:08;;;;;;;12.73;7.90;;;;;;;;;;12625327;23;20583;-67
2023/10/15 23:00:09;;;;;;;7.93;7.30;;;;;;;;;;12631553;23;20036;-69
2023/10/15 23:05:07;;;;;;;10.90;8.13;;;;;;;;;;12629891;23;20016;-69
2023/10/15 23:10:07;;;;;;;8.85;8.05;;;;;;;;;;12634486;23;20090;-69
2023/10/15 23:15:05;;;;;;;9.57;8.02;;;;;;;;;;12635306;23;20095;-67
2023/10/15 23:20:15;;;;;;;10.90;7.93;;;;;;;;;;12635887;23;20078;-67
2023/10/15 23:25:12;;;;;;;8.35;7.57;;;;;;;;;;12633130;23;20044;-68
2023/10/15 23:30:09;;;;;;;9.43;7.25;;;;;;;;;;12634248;23;20021;-69
2023/10/15 23:35:09;;;;;;;9.20;7.80;;;;;;;;;;12633925;23;20024;-68
2023/10/15 23:40:06;;;;;;;11.35;8.20;;;;;;;;;;12634385;23;20461;-67
2023/10/15 23:45:06;;;;;;;10.20;7.75;;;;;;;;;;12634097;23;20031;-68
2023/10/15 23:50:13;;;;;;;9.30;8.15;;;;;;;;;;12633946;23;20024;-67
2023/10/15 23:55:16;;;;;;;8.20;7.50;;;;;;;;;;12633265;23;20386;-67
